createdAt,value
2023-05-06T00:01:00.446Z,101221.86
2023-05-06T00:03:31.565Z,101218.36
2023-05-06T00:06:02.882Z,101220.07
2023-05-06T00:08:32.940Z,101217.46
2023-05-06T00:11:01.965Z,101206.17
2023-05-06T00:13:33.601Z,101213.08
2023-05-06T00:16:03.433Z,101211.33
2023-05-06T00:18:32.823Z,101209.53
2023-05-06T00:21:01.962Z,101208.64
2023-05-06T00:23:31.830Z,101207.73
2023-05-06T00:26:01.063Z,101212.00
2023-05-06T00:28:30.177Z,101212.83
2023-05-06T00:31:00.471Z,101215.38
2023-05-06T00:33:32.594Z,101223.13
2023-05-06T00:36:01.847Z,101218.73
2023-05-06T00:38:32.770Z,101224.77
2023-05-06T00:41:03.115Z,101217.78
2023-05-06T00:43:32.691Z,101219.47
2023-05-06T00:46:02.155Z,101221.17
2023-05-06T00:48:31.824Z,101221.16
2023-05-06T00:51:01.102Z,101219.42
2023-05-06T00:53:33.509Z,101217.67
2023-05-06T00:56:03.614Z,101215.03
2023-05-06T00:58:33.459Z,101214.16
2023-05-06T01:01:03.531Z,101219.30
2023-05-06T01:03:33.478Z,101218.36
2023-05-06T01:06:14.221Z,101215.70
2023-05-06T01:08:57.784Z,101219.09
2023-05-06T01:11:37.405Z,101223.37
2023-05-06T01:14:13.768Z,101229.35
2023-05-06T01:16:43.867Z,101229.28
2023-05-06T01:19:28.647Z,101227.47
2023-05-06T01:22:01.898Z,101231.70
2023-05-06T01:24:39.064Z,101229.05
2023-05-06T01:27:09.073Z,101234.21
2023-05-06T01:29:42.442Z,101247.12
2023-05-06T01:32:36.552Z,101242.72
2023-05-06T01:35:17.396Z,101244.34
2023-05-06T01:37:52.667Z,101233.89
2023-05-06T01:40:25.424Z,101239.00
2023-05-06T01:42:56.080Z,101244.12
2023-05-06T01:45:28.538Z,101238.87
2023-05-06T01:47:58.774Z,101247.48
2023-05-06T01:50:29.183Z,101251.77
2023-05-06T01:53:03.474Z,101247.42
2023-05-06T01:55:34.479Z,101242.22
2023-05-06T01:58:06.241Z,101240.48
2023-05-06T02:00:35.640Z,101232.70
2023-05-06T02:03:04.629Z,101240.48
2023-05-06T02:05:34.522Z,101237.03
2023-05-06T02:08:04.377Z,101236.98
2023-05-06T02:10:33.619Z,101230.88
2023-05-06T02:13:10.958Z,101234.31
2023-05-06T02:15:39.803Z,101226.50
2023-05-06T02:18:13.848Z,101232.53
2023-05-06T02:20:43.497Z,101228.20
2023-05-06T02:23:17.292Z,101234.23
2023-05-06T02:25:46.644Z,101227.30
2023-05-06T02:28:15.828Z,101226.45
2023-05-06T02:30:45.178Z,101223.01
2023-05-06T02:33:14.386Z,101220.42
2023-05-06T02:35:43.237Z,101211.75
2023-05-06T02:38:12.124Z,101203.06
2023-05-06T02:40:41.030Z,101205.64
2023-05-06T02:43:09.858Z,101203.94
2023-05-06T02:45:38.900Z,101203.88
2023-05-06T02:48:08.208Z,101200.39
2023-05-06T02:50:39.245Z,101210.77
2023-05-06T02:53:08.449Z,101200.38
2023-05-06T02:55:37.342Z,101206.41
2023-05-06T02:58:06.665Z,101205.50
2023-05-06T03:00:35.914Z,101199.41
2023-05-06T03:03:05.108Z,101207.17
2023-05-06T03:05:34.071Z,101215.78
2023-05-06T03:08:03.028Z,101208.84
2023-05-06T03:10:33.591Z,101210.55
2023-05-06T03:13:02.843Z,101217.46
2023-05-06T03:15:34.484Z,101217.48
2023-05-06T03:18:03.572Z,101220.12
2023-05-06T03:20:33.733Z,101222.66
2023-05-06T03:23:03.225Z,101234.77
2023-05-06T03:25:33.153Z,101228.69
2023-05-06T03:28:02.246Z,101239.95
2023-05-06T03:30:32.510Z,101240.85
2023-05-06T03:33:02.731Z,101226.20
2023-05-06T03:35:33.810Z,101235.70
2023-05-06T03:38:03.314Z,101229.72
2023-05-06T03:40:38.878Z,101234.92
2023-05-06T03:43:08.115Z,101237.58
2023-05-06T03:45:37.750Z,101245.38
2023-05-06T03:48:07.446Z,101245.44
2023-05-06T03:50:40.962Z,101236.83
2023-05-06T03:53:10.686Z,101246.38
2023-05-06T03:55:41.703Z,101239.50
2023-05-06T03:58:12.908Z,101249.92
2023-05-06T04:00:43.716Z,101239.58
2023-05-06T04:03:12.817Z,101237.05
2023-05-06T04:05:48.661Z,101239.70
2023-05-06T04:08:18.670Z,101238.87
2023-05-06T04:10:48.316Z,101230.25
2023-05-06T04:13:28.249Z,101231.15
2023-05-06T04:15:59.513Z,101222.54
2023-05-06T04:18:33.829Z,101220.00
2023-05-06T04:21:07.776Z,101221.77
2023-05-06T04:23:42.189Z,101225.26
2023-05-06T04:26:12.580Z,101220.13
2023-05-06T04:28:42.849Z,101220.14
2023-05-06T04:31:14.582Z,101220.16
2023-05-06T04:33:48.240Z,101223.64
2023-05-06T04:36:20.232Z,101214.13
2023-05-06T04:38:57.845Z,101219.35
2023-05-06T04:41:31.420Z,101221.11
2023-05-06T04:44:01.055Z,101226.26
2023-05-06T04:46:34.762Z,101223.65
2023-05-06T04:49:04.490Z,101221.06
2023-05-06T04:51:33.687Z,101221.11
2023-05-06T04:54:03.556Z,101223.78
2023-05-06T04:56:35.714Z,101216.91
2023-05-06T04:59:07.123Z,101220.45
2023-05-06T05:01:37.677Z,101215.28
2023-05-06T05:04:06.740Z,101213.59
2023-05-06T05:06:36.328Z,101208.46
2023-05-06T05:09:05.750Z,101211.12
2023-05-06T05:11:38.027Z,101210.34
2023-05-06T05:14:07.423Z,101214.80
2023-05-06T05:16:38.460Z,101208.87
2023-05-06T05:19:09.374Z,101206.37
2023-05-06T05:21:39.286Z,101207.28
2023-05-06T05:24:11.257Z,101206.49
2023-05-06T05:26:40.705Z,101202.24
2023-05-06T05:29:09.871Z,101205.74
2023-05-06T05:31:40.185Z,101205.78
2023-05-06T05:34:10.811Z,101198.05
2023-05-06T05:36:41.042Z,101202.39
2023-05-06T05:39:11.767Z,101203.30
2023-05-06T05:41:45.278Z,101203.34
2023-05-06T05:44:14.908Z,101208.59
2023-05-06T05:46:44.473Z,101205.19
2023-05-06T05:49:15.864Z,101196.59
2023-05-06T05:51:45.121Z,101198.42
2023-05-06T05:54:16.210Z,101197.66
2023-05-06T05:56:45.203Z,101195.13
2023-05-06T05:59:14.542Z,101196.09
2023-05-06T06:01:44.948Z,101178.79
2023-05-06T06:04:13.835Z,101184.06
2023-05-06T06:06:43.318Z,101179.81
2023-05-06T06:09:12.642Z,101186.86
2023-05-06T06:11:41.837Z,101178.25
2023-05-06T06:14:11.173Z,101187.00
2023-05-06T06:16:41.220Z,101178.39
2023-05-06T06:19:10.632Z,101180.16
2023-05-06T06:21:39.497Z,101189.76
2023-05-06T06:24:08.636Z,101183.73
2023-05-06T06:26:37.637Z,101189.82
2023-05-06T06:29:07.402Z,101188.98
2023-05-06T06:31:41.230Z,101194.23
2023-05-06T06:34:12.088Z,101183.84
2023-05-06T06:36:44.664Z,101183.00
2023-05-06T06:39:14.641Z,101178.69
2023-05-06T06:41:43.585Z,101179.56
2023-05-06T06:44:12.560Z,101173.50
2023-05-06T06:46:42.356Z,101171.77
2023-05-06T06:49:11.185Z,101182.22
2023-05-06T06:51:40.841Z,101177.00
2023-05-06T06:54:10.553Z,101182.24
2023-05-06T06:56:39.771Z,101168.33
2023-05-06T06:59:09.136Z,101168.34
2023-05-06T07:01:38.934Z,101164.00
2023-05-06T07:04:08.714Z,101169.23
2023-05-06T07:06:37.991Z,101163.16
2023-05-06T07:09:06.830Z,101155.33
2023-05-06T07:11:36.375Z,101153.58
2023-05-06T07:14:05.552Z,101153.61
2023-05-06T07:16:38.271Z,101149.22
2023-05-06T07:19:09.709Z,101152.73
2023-05-06T07:21:39.647Z,101147.52
2023-05-06T07:24:09.693Z,101141.44
2023-05-06T07:26:39.671Z,101144.91
2023-05-06T07:29:09.198Z,101137.06
2023-05-06T07:31:38.606Z,101139.66
2023-05-06T07:34:07.738Z,101136.19
2023-05-06T07:36:40.302Z,101138.78
2023-05-06T07:39:11.020Z,101134.41
2023-05-06T07:41:40.301Z,101134.41
2023-05-06T07:44:09.409Z,101134.38
2023-05-06T07:46:39.053Z,101129.15
2023-05-06T07:49:08.053Z,101127.38
2023-05-06T07:51:36.984Z,101133.47
2023-05-06T07:54:06.767Z,101132.59
2023-05-06T07:56:35.921Z,101132.59
2023-05-06T07:59:04.757Z,101130.00
2023-05-06T08:01:36.134Z,101134.33
2023-05-06T08:04:05.904Z,101123.87
2023-05-06T08:06:34.833Z,101132.59
2023-05-06T08:09:04.054Z,101137.83
2023-05-06T08:11:38.485Z,101138.70
2023-05-06T08:14:07.487Z,101137.82
2023-05-06T08:16:37.477Z,101136.98
2023-05-06T08:19:06.340Z,101142.20
2023-05-06T08:21:35.250Z,101141.34
2023-05-06T08:24:04.767Z,101148.31
2023-05-06T08:26:34.640Z,101137.00
2023-05-06T08:29:03.814Z,101143.09
2023-05-06T08:31:36.476Z,101145.72
2023-05-06T08:34:05.852Z,101141.37
2023-05-06T08:36:34.713Z,101140.53
2023-05-06T08:39:03.549Z,101138.78
2023-05-06T08:41:36.812Z,101141.41
2023-05-06T08:44:07.767Z,101142.28
2023-05-06T08:46:37.683Z,101144.00
2023-05-06T08:49:06.853Z,101144.89
2023-05-06T08:51:37.694Z,101145.76
2023-05-06T08:54:09.741Z,101150.97
2023-05-06T08:56:52.804Z,101145.77
2023-05-06T08:59:25.982Z,101147.48
2023-05-06T09:01:55.014Z,101143.13
2023-05-06T09:04:24.296Z,101139.64
2023-05-06T09:06:53.446Z,101136.14
2023-05-06T09:09:23.197Z,101145.75
2023-05-06T09:11:54.675Z,101134.44
2023-05-06T09:14:24.225Z,101125.75
2023-05-06T09:16:53.634Z,101128.36
2023-05-06T09:19:23.763Z,101137.05
2023-05-06T09:21:53.216Z,101132.68
2023-05-06T09:24:22.256Z,101138.76
2023-05-06T09:26:54.561Z,101128.28
2023-05-06T09:29:23.645Z,101136.09
2023-05-06T09:31:55.181Z,101134.33
2023-05-06T09:34:24.817Z,101141.25
2023-05-06T09:36:56.583Z,101129.93
2023-05-06T09:39:27.238Z,101125.58
2023-05-06T09:41:56.809Z,101124.69
2023-05-06T09:44:27.456Z,101114.33
2023-05-06T09:46:56.542Z,101115.23
2023-05-06T09:49:26.357Z,101120.50
2023-05-06T09:51:57.272Z,101111.82
2023-05-06T09:54:28.650Z,101105.73
2023-05-06T09:57:00.895Z,101111.83
2023-05-06T09:59:32.263Z,101099.65
2023-05-06T10:02:04.800Z,101091.84
2023-05-06T10:04:36.948Z,101102.27
2023-05-06T10:07:07.301Z,101097.91
2023-05-06T10:09:38.874Z,101093.56
2023-05-06T10:12:09.809Z,101107.47
2023-05-06T10:14:39.307Z,101104.86
2023-05-06T10:17:11.579Z,101101.34
2023-05-06T10:19:43.864Z,101102.18
2023-05-06T10:22:21.860Z,101099.55
2023-05-06T10:24:59.145Z,101094.33
2023-05-06T10:27:32.249Z,101087.32
2023-05-06T10:30:01.998Z,101081.22
2023-05-06T10:32:33.230Z,101078.63
2023-05-06T10:35:10.559Z,101076.85
2023-05-06T10:37:41.843Z,101069.03
2023-05-06T10:40:12.769Z,101074.25
2023-05-06T10:42:41.759Z,101070.77
2023-05-06T10:45:11.742Z,101071.63
2023-05-06T10:48:08.833Z,101062.05
2023-05-06T10:50:36.911Z,101062.91
2023-05-06T10:53:05.800Z,101048.95
2023-05-06T10:55:36.109Z,101051.61
2023-05-06T10:58:15.244Z,101042.03
2023-05-06T11:00:56.749Z,101041.16
2023-05-06T11:03:27.088Z,101035.06
2023-05-06T11:05:56.296Z,101035.94
2023-05-06T11:08:26.706Z,101042.06
2023-05-06T11:10:55.777Z,101036.84
2023-05-06T11:13:26.989Z,101042.08
2023-05-06T11:15:57.598Z,101041.22
2023-05-06T11:18:44.347Z,101045.59
2023-05-06T11:21:40.079Z,101046.47
2023-05-06T11:24:11.565Z,101046.48
2023-05-06T11:26:42.809Z,101045.65
2023-05-06T11:29:11.896Z,101044.80
2023-05-06T11:31:42.656Z,101050.93
2023-05-06T11:34:14.005Z,101050.06
2023-05-06T11:36:52.653Z,101051.81
2023-05-06T11:39:21.588Z,101050.09
2023-05-06T11:41:52.323Z,101048.36
2023-05-06T11:44:28.972Z,101051.84
2023-05-06T11:47:02.509Z,101055.32
2023-05-06T11:49:37.027Z,101050.98
2023-05-06T11:52:10.111Z,101057.06
2023-05-06T11:54:41.904Z,101051.87
2023-05-06T11:57:11.104Z,101057.97
2023-05-06T11:59:41.597Z,101064.05
2023-05-06T12:02:12.487Z,101071.00
2023-05-06T12:04:43.562Z,101069.27
2023-05-06T12:07:14.347Z,101070.12
2023-05-06T12:09:46.747Z,101066.62
2023-05-06T12:12:21.196Z,101070.10
2023-05-06T12:14:50.622Z,101064.84
2023-05-06T12:17:19.814Z,101069.18
2023-05-06T12:19:48.925Z,101070.89
2023-05-06T12:22:19.683Z,101070.03
2023-05-06T12:24:49.577Z,101068.25
2023-05-06T12:27:35.244Z,101077.80
2023-05-06T12:30:08.565Z,101074.28
2023-05-06T12:32:55.961Z,101079.50
2023-05-06T12:35:29.193Z,101075.99
2023-05-06T12:38:11.891Z,101082.92
2023-05-06T12:40:41.733Z,101082.05
2023-05-06T12:43:12.300Z,101087.25
2023-05-06T12:45:41.532Z,101069.02
2023-05-06T12:48:16.740Z,101066.36
2023-05-06T12:50:47.432Z,101066.34
2023-05-06T12:53:32.897Z,101065.47
2023-05-06T12:56:01.990Z,101060.22
2023-05-06T12:58:36.821Z,101055.81
2023-05-06T13:01:07.154Z,101050.56
2023-05-06T13:03:38.592Z,101051.41
2023-05-06T13:06:08.329Z,101053.98
2023-05-06T13:08:37.356Z,101050.49
2023-05-06T13:11:07.406Z,101053.03
2023-05-06T13:13:36.398Z,101049.55
2023-05-06T13:16:09.533Z,101044.29
2023-05-06T13:18:40.945Z,101035.61
2023-05-06T13:21:09.860Z,101030.34
2023-05-06T13:23:46.263Z,101023.37
2023-05-06T13:26:16.797Z,101018.11
2023-05-06T13:28:45.844Z,101004.23
2023-05-06T13:31:14.973Z,101005.08
2023-05-06T13:33:43.979Z,100999.82
2023-05-06T13:36:13.034Z,100988.53
2023-05-06T13:38:42.093Z,100993.70
2023-05-06T13:41:10.902Z,100986.76
2023-05-06T13:43:39.963Z,100989.32
2023-05-06T13:46:09.867Z,100996.23
2023-05-06T13:48:39.011Z,100991.89
2023-05-06T13:51:08.219Z,100987.51
2023-05-06T13:53:38.910Z,100977.12
2023-05-06T13:56:08.097Z,100978.86
2023-05-06T13:58:37.203Z,100973.63
2023-05-06T14:01:07.460Z,100974.48
2023-05-06T14:03:36.587Z,100966.69
2023-05-06T14:06:08.038Z,100964.95
2023-05-06T14:08:37.162Z,100971.89
2023-05-06T14:11:07.435Z,100969.29
2023-05-06T14:13:36.896Z,100970.14
2023-05-06T14:16:07.258Z,100964.09
2023-05-06T14:18:36.259Z,100963.20
2023-05-06T14:21:06.180Z,100964.09
2023-05-06T14:23:36.137Z,100957.12
2023-05-06T14:26:05.907Z,100956.27
2023-05-06T14:28:35.258Z,100953.64
2023-05-06T14:31:05.114Z,100965.77
2023-05-06T14:33:34.125Z,100959.72
2023-05-06T14:36:03.096Z,100947.62
2023-05-06T14:38:35.028Z,100954.52
2023-05-06T14:41:04.538Z,100957.97
2023-05-06T14:43:33.836Z,100962.31
2023-05-06T14:46:02.697Z,100960.57
2023-05-06T14:48:34.194Z,100959.69
2023-05-06T14:51:04.012Z,100960.57
2023-05-06T14:53:35.226Z,100971.81
2023-05-06T14:56:07.295Z,100970.92
2023-05-06T14:58:36.190Z,100972.63
2023-05-06T15:01:06.481Z,100971.73
2023-05-06T15:03:36.016Z,100975.19
2023-05-06T15:06:06.324Z,100969.14
2023-05-06T15:08:35.918Z,100971.73
2023-05-06T15:11:05.568Z,100970.88
2023-05-06T15:13:34.661Z,100971.73
2023-05-06T15:16:04.082Z,100976.07
2023-05-06T15:18:33.968Z,100977.78
2023-05-06T15:21:03.118Z,100982.97
2023-05-06T15:23:34.959Z,100984.68
2023-05-06T15:26:04.236Z,100988.16
2023-05-06T15:28:33.935Z,100987.27
2023-05-06T15:31:06.044Z,100988.97
2023-05-06T15:33:35.323Z,100992.42
2023-05-06T15:36:06.747Z,100981.14
2023-05-06T15:38:59.916Z,100984.55
2023-05-06T15:41:32.202Z,100988.84
2023-05-06T15:44:03.647Z,100994.89
2023-05-06T15:46:35.239Z,100992.30
2023-05-06T15:51:37.144Z,100994.00
2023-05-06T15:54:06.419Z,100991.39
2023-05-06T15:56:40.766Z,100989.66
2023-05-06T15:59:11.654Z,100993.10
2023-05-06T16:04:13.201Z,101001.69
2023-05-06T16:06:42.942Z,101018.11
2023-05-06T16:09:11.953Z,101021.59
2023-05-06T16:11:40.926Z,101020.70
2023-05-06T16:14:10.035Z,101024.15
2023-05-06T16:16:39.298Z,101025.89
2023-05-06T16:19:09.245Z,101029.30
2023-05-06T16:21:38.541Z,101025.84
2023-05-06T16:24:08.686Z,101030.14
2023-05-06T16:26:38.390Z,101037.06
2023-05-06T16:29:07.630Z,101040.52
2023-05-06T16:31:39.476Z,101043.95
2023-05-06T16:34:08.404Z,101040.45
2023-05-06T16:36:37.758Z,101049.95
2023-05-06T16:39:08.764Z,101051.69
2023-05-06T16:41:38.590Z,101053.39
2023-05-06T16:44:08.004Z,101049.94
2023-05-06T16:46:38.257Z,101050.78
2023-05-06T16:49:07.921Z,101043.00
2023-05-06T16:51:36.916Z,101042.95
2023-05-06T16:54:06.529Z,101042.95
2023-05-06T16:56:48.099Z,101042.06
2023-05-06T16:59:22.416Z,101049.84
2023-05-06T17:01:51.621Z,101040.34
2023-05-06T17:04:22.349Z,101042.94
2023-05-06T17:06:51.757Z,101044.65
2023-05-06T17:09:21.783Z,101055.02
2023-05-06T17:11:51.297Z,101049.78
2023-05-06T17:14:20.465Z,101038.55
2023-05-06T17:16:50.707Z,101041.09
2023-05-06T17:19:19.986Z,101041.05
2023-05-06T17:21:49.108Z,101046.23
2023-05-06T17:24:18.211Z,101047.12
2023-05-06T17:26:48.043Z,101041.89
2023-05-06T17:29:17.292Z,101043.63
2023-05-06T17:31:46.491Z,101039.28
2023-05-06T17:34:16.041Z,101034.95
2023-05-06T17:36:45.233Z,101037.54
2023-05-06T17:39:14.627Z,101031.45
2023-05-06T17:41:43.693Z,101045.27
2023-05-06T17:44:12.642Z,101044.42
2023-05-06T17:46:41.943Z,101042.68
2023-05-06T17:49:11.116Z,101041.78
2023-05-06T17:51:42.034Z,101047.81
2023-05-06T17:54:11.169Z,101051.28
2023-05-06T17:56:40.135Z,101058.17
2023-05-06T17:59:10.964Z,101057.28
2023-05-06T18:01:40.342Z,101057.28
2023-05-06T18:04:09.720Z,101060.72
2023-05-06T18:06:38.695Z,101061.55
2023-05-06T18:09:08.156Z,101062.38
2023-05-06T18:11:37.830Z,101062.33
2023-05-06T18:14:07.584Z,101064.02
2023-05-06T18:16:38.404Z,101061.42
2023-05-06T18:19:07.331Z,101064.81
2023-05-06T18:21:36.770Z,101061.35
2023-05-06T18:24:16.184Z,101071.68
2023-05-06T18:26:46.386Z,101073.41
2023-05-06T18:29:15.589Z,101074.27
2023-05-06T18:31:44.683Z,101075.16
2023-05-06T18:34:14.116Z,101081.19
2023-05-06T18:36:43.089Z,101080.30
2023-05-06T18:39:11.993Z,101087.22
2023-05-06T18:41:41.560Z,101081.14
2023-05-06T18:44:11.992Z,101088.86
2023-05-06T18:46:40.989Z,101077.59
2023-05-06T18:49:10.304Z,101081.05
2023-05-06T18:51:39.422Z,101080.16
2023-05-06T18:54:09.120Z,101082.70
2023-05-06T18:56:38.277Z,101077.49
2023-05-06T18:59:07.692Z,101075.66
2023-05-06T19:01:37.642Z,101077.40
2023-05-06T19:04:07.489Z,101076.51
2023-05-06T19:06:37.854Z,101080.84
2023-05-06T19:09:07.772Z,101077.39
2023-05-06T19:11:37.011Z,101086.88
2023-05-06T19:14:08.273Z,101087.77
2023-05-06T19:16:38.082Z,101081.69
2023-05-06T19:19:07.159Z,101082.62
2023-05-06T19:21:37.923Z,101078.26
2023-05-06T19:24:07.272Z,101084.28
2023-05-06T19:26:38.239Z,101081.67
2023-05-06T19:29:07.341Z,101077.34
2023-05-06T19:31:37.623Z,101079.94
2023-05-06T19:34:06.960Z,101066.12
2023-05-06T19:36:36.045Z,101067.81
2023-05-06T19:39:05.206Z,101068.66
2023-05-06T19:41:35.388Z,101064.31
2023-05-06T19:44:04.639Z,101060.87
2023-05-06T19:46:36.237Z,101063.45
2023-05-06T19:49:05.943Z,101061.70
2023-05-06T19:51:34.811Z,101057.38
2023-05-06T19:54:04.029Z,101054.80
2023-05-06T19:56:35.825Z,101062.55
2023-05-06T19:59:04.963Z,101066.83
2023-05-06T20:01:36.270Z,101067.69
2023-05-06T20:04:05.812Z,101082.38
2023-05-06T20:06:34.959Z,101080.63
2023-05-06T20:09:04.246Z,101091.00
2023-05-06T20:11:34.389Z,101083.20
2023-05-06T20:14:04.161Z,101081.46
2023-05-06T20:16:36.079Z,101086.64
2023-05-06T20:19:05.726Z,101081.46
2023-05-06T20:21:34.747Z,101088.33
2023-05-06T20:24:04.265Z,101075.38
2023-05-06T20:26:36.065Z,101083.99
2023-05-06T20:29:05.137Z,101086.58
2023-05-06T20:31:38.314Z,101091.77
2023-05-06T20:34:08.029Z,101090.86
2023-05-06T20:36:37.074Z,101081.34
2023-05-06T20:39:07.092Z,101080.48
2023-05-06T20:41:36.522Z,101084.82
2023-05-06T20:44:06.025Z,101075.30
2023-05-06T20:46:37.738Z,101077.87
2023-05-06T20:49:07.244Z,101076.98
2023-05-06T20:51:36.867Z,101066.61
2023-05-06T20:54:09.492Z,101073.48
2023-05-06T20:56:39.056Z,101074.34
2023-05-06T20:59:10.728Z,101069.98
2023-05-06T21:01:39.749Z,101073.47
2023-05-06T21:04:10.430Z,101070.83
2023-05-06T21:06:39.434Z,101082.08
2023-05-06T21:09:09.666Z,101076.05
2023-05-06T21:11:39.071Z,101077.75
2023-05-06T21:14:08.395Z,101082.94
2023-05-06T21:16:39.212Z,101078.59
2023-05-06T21:19:08.368Z,101079.48
2023-05-06T21:21:37.915Z,101077.74
2023-05-06T21:24:08.369Z,101084.63
2023-05-06T21:26:39.446Z,101079.41
2023-05-06T21:29:08.640Z,101087.13
2023-05-06T21:31:40.064Z,101086.28
2023-05-06T21:34:11.759Z,101087.12
2023-05-06T21:36:41.875Z,101087.96
2023-05-06T21:39:13.255Z,101088.80
2023-05-06T21:41:42.660Z,101084.45
2023-05-06T21:44:12.036Z,101083.56
2023-05-06T21:46:42.275Z,101091.33
2023-05-06T21:49:11.293Z,101086.13
2023-05-06T21:51:40.861Z,101085.30
2023-05-06T21:54:10.187Z,101081.81
2023-05-06T21:56:39.456Z,101080.06
2023-05-06T21:59:09.026Z,101084.41
2023-05-06T22:01:39.079Z,101080.95
2023-05-06T22:04:12.545Z,101077.47
2023-05-06T22:06:41.549Z,101078.36
2023-05-06T22:09:11.329Z,101069.70
2023-05-06T22:11:43.206Z,101082.66
2023-05-06T22:14:12.597Z,101085.24
2023-05-06T22:16:42.577Z,101086.06
2023-05-06T22:19:12.856Z,101084.30
2023-05-06T22:21:42.417Z,101085.15
2023-05-06T22:24:11.616Z,101088.59
2023-05-06T22:26:40.994Z,101086.88
2023-05-06T22:29:10.612Z,101093.75
2023-05-06T22:31:39.947Z,101093.73
2023-05-06T22:34:09.872Z,101095.44
2023-05-06T22:36:39.465Z,101096.28
2023-05-06T22:39:10.962Z,101096.27
2023-05-06T22:41:40.218Z,101089.35
2023-05-06T22:44:10.267Z,101091.92
2023-05-06T22:46:39.914Z,101092.77
2023-05-06T22:49:09.479Z,101090.16
2023-05-06T22:51:38.424Z,101091.86
2023-05-06T22:54:07.352Z,101090.16
2023-05-06T22:56:36.250Z,101091.00
2023-05-06T22:59:05.662Z,101082.34
2023-05-06T23:01:34.575Z,101075.47
2023-05-06T23:04:03.618Z,101078.04
2023-05-06T23:06:33.540Z,101081.47
2023-05-06T23:09:02.491Z,101089.25
2023-05-06T23:11:33.799Z,101084.90
2023-05-06T23:14:04.898Z,101087.48
2023-05-06T23:16:34.729Z,101086.58
2023-05-06T23:19:03.744Z,101088.27
2023-05-06T23:21:33.819Z,101090.84
2023-05-06T23:24:02.983Z,101091.67
2023-05-06T23:26:32.551Z,101098.53
2023-05-06T23:29:01.624Z,101103.70
2023-05-06T23:31:31.086Z,101100.21
2023-05-06T23:34:02.914Z,101104.48
2023-05-06T23:36:33.644Z,101102.77
2023-05-06T23:39:02.870Z,101113.11
2023-05-06T23:41:32.555Z,101111.38
2023-05-06T23:44:01.421Z,101111.36
2023-05-06T23:46:34.515Z,101119.97
2023-05-06T23:49:04.177Z,101109.56
2023-05-06T23:51:34.946Z,101113.86
2023-05-06T23:54:04.053Z,101112.06
2023-05-06T23:56:33.700Z,101112.95
2023-05-06T23:59:03.675Z,101112.91
